sensor_id;sensor_type;location;lat;lon;timestamp;pressure;altitude;pressure_sealevel;temperature;humidity
8140;BME280;4111;50.972;7.072;2022-07-23T00:01:51;101249.19;;;20.74;75.25
8140;BME280;4111;50.972;7.072;2022-07-23T00:04:18;101251.13;;;20.55;76.02
8140;BME280;4111;50.972;7.072;2022-07-23T00:06:44;101250.63;;;20.53;76.32
8140;BME280;4111;50.972;7.072;2022-07-23T00:09:11;101251.13;;;20.55;76.32
8140;BME280;4111;50.972;7.072;2022-07-23T00:11:38;101260.94;;;20.80;76.68
8140;BME280;4111;50.972;7.072;2022-07-23T00:14:04;101265.56;;;20.85;76.77
8140;BME280;4111;50.972;7.072;2022-07-23T00:16:31;101253.25;;;20.77;76.81
8140;BME280;4111;50.972;7.072;2022-07-23T00:18:57;101257.72;;;20.59;77.81
8140;BME280;4111;50.972;7.072;2022-07-23T00:21:28;101263.59;;;20.52;78.36
8140;BME280;4111;50.972;7.072;2022-07-23T00:23:55;101269.94;;;20.53;78.43
8140;BME280;4111;50.972;7.072;2022-07-23T00:26:21;101276.44;;;20.43;78.56
8140;BME280;4111;50.972;7.072;2022-07-23T00:28:48;101275.91;;;20.41;78.71
8140;BME280;4111;50.972;7.072;2022-07-23T00:31:14;101263.06;;;20.69;78.85
8140;BME280;4111;50.972;7.072;2022-07-23T00:33:41;101255.03;;;20.54;78.31
8140;BME280;4111;50.972;7.072;2022-07-23T00:36:08;101252.41;;;20.44;78.29
8140;BME280;4111;50.972;7.072;2022-07-23T00:38:35;101257.00;;;20.34;79.79
8140;BME280;4111;50.972;7.072;2022-07-23T00:41:01;101263.72;;;20.28;80.37
8140;BME280;4111;50.972;7.072;2022-07-23T00:43:28;101264.88;;;20.22;81.21
8140;BME280;4111;50.972;7.072;2022-07-23T00:45:54;101265.66;;;20.09;82.09
8140;BME280;4111;50.972;7.072;2022-07-23T00:48:21;101258.88;;;20.01;82.79
8140;BME280;4111;50.972;7.072;2022-07-23T00:50:48;101263.41;;;20.11;82.85
8140;BME280;4111;50.972;7.072;2022-07-23T00:53:15;101263.84;;;20.18;83.70
8140;BME280;4111;50.972;7.072;2022-07-23T00:55:41;101258.84;;;20.39;83.74
8140;BME280;4111;50.972;7.072;2022-07-23T00:58:09;101261.53;;;20.25;83.58
8140;BME280;4111;50.972;7.072;2022-07-23T01:00:36;101268.63;;;20.12;83.54
8140;BME280;4111;50.972;7.072;2022-07-23T01:03:02;101259.69;;;20.01;84.35
8140;BME280;4111;50.972;7.072;2022-07-23T01:05:29;101266.91;;;19.97;84.78
8140;BME280;4111;50.972;7.072;2022-07-23T01:07:55;101266.75;;;19.89;84.95
8140;BME280;4111;50.972;7.072;2022-07-23T01:10:23;101269.94;;;19.77;86.03
8140;BME280;4111;50.972;7.072;2022-07-23T01:13:00;101272.47;;;19.92;86.55
8140;BME280;4111;50.972;7.072;2022-07-23T01:15:28;101265.72;;;20.04;86.70
8140;BME280;4111;50.972;7.072;2022-07-23T01:17:54;101274.56;;;20.38;85.98
8140;BME280;4111;50.972;7.072;2022-07-23T01:20:21;101266.53;;;20.23;85.78
8140;BME280;4111;50.972;7.072;2022-07-23T01:22:48;101250.31;;;20.03;85.93
8140;BME280;4111;50.972;7.072;2022-07-23T01:25:15;101251.75;;;19.76;87.67
8140;BME280;4111;50.972;7.072;2022-07-23T01:27:42;101242.16;;;19.73;88.40
8140;BME280;4111;50.972;7.072;2022-07-23T01:30:09;101251.41;;;19.58;89.41
8140;BME280;4111;50.972;7.072;2022-07-23T01:32:36;101248.72;;;19.53;89.60
8140;BME280;4111;50.972;7.072;2022-07-23T01:35:03;101239.34;;;19.54;90.30
8140;BME280;4111;50.972;7.072;2022-07-23T01:37:30;101223.38;;;19.94;90.61
8140;BME280;4111;50.972;7.072;2022-07-23T01:39:56;101219.53;;;20.14;89.55
8140;BME280;4111;50.972;7.072;2022-07-23T01:42:23;101232.53;;;19.71;88.78
8140;BME280;4111;50.972;7.072;2022-07-23T01:44:50;101232.66;;;19.60;89.41
8140;BME280;4111;50.972;7.072;2022-07-23T01:47:16;101236.78;;;19.39;90.63
8140;BME280;4111;50.972;7.072;2022-07-23T01:49:43;101235.31;;;19.22;91.80
8140;BME280;4111;50.972;7.072;2022-07-23T01:52:09;101232.03;;;19.20;92.03
8140;BME280;4111;50.972;7.072;2022-07-23T01:54:38;101223.22;;;19.24;92.51
8140;BME280;4111;50.972;7.072;2022-07-23T01:57:06;101228.22;;;19.16;92.55
8140;BME280;4111;50.972;7.072;2022-07-23T01:59:33;101234.94;;;19.29;93.17
8140;BME280;4111;50.972;7.072;2022-07-23T02:01:59;101222.56;;;19.51;93.61
8140;BME280;4111;50.972;7.072;2022-07-23T02:04:26;101225.75;;;19.63;93.35
8140;BME280;4111;50.972;7.072;2022-07-23T02:06:53;101236.06;;;19.52;93.32
8140;BME280;4111;50.972;7.072;2022-07-23T02:09:19;101242.34;;;19.34;94.02
8140;BME280;4111;50.972;7.072;2022-07-23T02:11:46;101240.78;;;19.28;94.54
8140;BME280;4111;50.972;7.072;2022-07-23T02:14:13;101244.09;;;19.25;94.87
8140;BME280;4111;50.972;7.072;2022-07-23T02:16:40;101237.53;;;19.20;94.93
8140;BME280;4111;50.972;7.072;2022-07-23T02:19:06;101238.16;;;19.17;95.50
8140;BME280;4111;50.972;7.072;2022-07-23T02:21:33;101235.16;;;19.14;95.72
8140;BME280;4111;50.972;7.072;2022-07-23T02:24:00;101233.91;;;19.49;95.80
8140;BME280;4111;50.972;7.072;2022-07-23T02:26:26;101217.16;;;19.65;94.54
8140;BME280;4111;50.972;7.072;2022-07-23T02:28:52;101214.16;;;19.42;93.99
8140;BME280;4111;50.972;7.072;2022-07-23T02:31:20;101222.84;;;19.30;94.29
8140;BME280;4111;50.972;7.072;2022-07-23T02:33:46;101218.88;;;19.17;95.22
8140;BME280;4111;50.972;7.072;2022-07-23T02:36:13;101222.25;;;19.09;96.23
8140;BME280;4111;50.972;7.072;2022-07-23T02:38:39;101227.53;;;19.30;96.53
8140;BME280;4111;50.972;7.072;2022-07-23T02:41:05;101224.22;;;19.76;96.20
8140;BME280;4111;50.972;7.072;2022-07-23T02:43:32;101229.53;;;20.10;94.10
8140;BME280;4111;50.972;7.072;2022-07-23T02:45:58;101225.25;;;19.80;92.82
8140;BME280;4111;50.972;7.072;2022-07-23T02:48:25;101221.09;;;19.58;93.37
8140;BME280;4111;50.972;7.072;2022-07-23T02:50:51;101231.25;;;19.39;94.04
8140;BME280;4111;50.972;7.072;2022-07-23T02:53:18;101227.00;;;19.28;95.00
8140;BME280;4111;50.972;7.072;2022-07-23T02:55:45;101222.97;;;19.20;96.08
8140;BME280;4111;50.972;7.072;2022-07-23T02:58:12;101227.72;;;19.14;96.29
8140;BME280;4111;50.972;7.072;2022-07-23T03:00:38;101226.13;;;19.08;96.72
8140;BME280;4111;50.972;7.072;2022-07-23T03:03:04;101231.88;;;19.36;97.00
8140;BME280;4111;50.972;7.072;2022-07-23T03:05:31;101222.28;;;19.52;96.28
8140;BME280;4111;50.972;7.072;2022-07-23T03:07:57;101221.75;;;19.50;95.40
8140;BME280;4111;50.972;7.072;2022-07-23T03:10:24;101229.75;;;19.28;94.65
8140;BME280;4111;50.972;7.072;2022-07-23T03:12:50;101219.72;;;19.13;95.00
8140;BME280;4111;50.972;7.072;2022-07-23T03:15:17;101228.47;;;18.96;95.50
8140;BME280;4111;50.972;7.072;2022-07-23T03:17:44;101224.69;;;18.87;96.09
8140;BME280;4111;50.972;7.072;2022-07-23T03:20:11;101225.59;;;18.82;96.70
8140;BME280;4111;50.972;7.072;2022-07-23T03:22:37;101219.94;;;18.63;96.79
8140;BME280;4111;50.972;7.072;2022-07-23T03:25:04;101226.31;;;18.58;97.46
8140;BME280;4111;50.972;7.072;2022-07-23T03:27:31;101228.34;;;18.77;97.71
8140;BME280;4111;50.972;7.072;2022-07-23T03:29:58;101235.25;;;19.03;97.02
8140;BME280;4111;50.972;7.072;2022-07-23T03:32:25;101224.44;;;19.12;95.50
8140;BME280;4111;50.972;7.072;2022-07-23T03:34:53;101234.53;;;18.93;95.48
8140;BME280;4111;50.972;7.072;2022-07-23T03:37:20;101234.66;;;18.77;95.47
8140;BME280;4111;50.972;7.072;2022-07-23T03:39:47;101231.19;;;18.67;95.84
8140;BME280;4111;50.972;7.072;2022-07-23T03:42:13;101234.88;;;18.52;96.23
8140;BME280;4111;50.972;7.072;2022-07-23T03:44:40;101243.19;;;18.47;97.16
8140;BME280;4111;50.972;7.072;2022-07-23T03:47:06;101243.22;;;18.41;97.47
8140;BME280;4111;50.972;7.072;2022-07-23T03:49:34;101239.38;;;18.42;97.95
8140;BME280;4111;50.972;7.072;2022-07-23T03:52:00;101236.94;;;18.36;97.98
8140;BME280;4111;50.972;7.072;2022-07-23T03:54:27;101235.06;;;18.31;98.30
8140;BME280;4111;50.972;7.072;2022-07-23T03:56:54;101235.06;;;18.31;98.40
8140;BME280;4111;50.972;7.072;2022-07-23T03:59:21;101232.34;;;18.26;98.68
8140;BME280;4111;50.972;7.072;2022-07-23T04:01:50;101235.63;;;18.62;98.85
8140;BME280;4111;50.972;7.072;2022-07-23T04:04:16;101232.03;;;18.96;97.45
8140;BME280;4111;50.972;7.072;2022-07-23T04:06:43;101234.28;;;18.89;96.20
8140;BME280;4111;50.972;7.072;2022-07-23T04:09:09;101231.44;;;18.70;95.73
8140;BME280;4111;50.972;7.072;2022-07-23T04:11:36;101228.31;;;18.48;96.30
8140;BME280;4111;50.972;7.072;2022-07-23T04:14:02;101236.84;;;18.46;96.38
8140;BME280;4111;50.972;7.072;2022-07-23T04:16:29;101236.13;;;18.35;96.63
8140;BME280;4111;50.972;7.072;2022-07-23T04:18:57;101238.97;;;18.25;97.36
8140;BME280;4111;50.972;7.072;2022-07-23T04:21:24;101242.25;;;18.22;97.88
8140;BME280;4111;50.972;7.072;2022-07-23T04:23:51;101239.63;;;18.07;98.26
8140;BME280;4111;50.972;7.072;2022-07-23T04:26:18;101240.47;;;18.07;98.83
8140;BME280;4111;50.972;7.072;2022-07-23T04:28:44;101242.13;;;18.42;99.11
8140;BME280;4111;50.972;7.072;2022-07-23T04:31:11;101248.34;;;18.53;98.12
8140;BME280;4111;50.972;7.072;2022-07-23T04:33:37;101256.41;;;18.45;97.93
8140;BME280;4111;50.972;7.072;2022-07-23T04:36:04;101253.69;;;18.39;98.06
8140;BME280;4111;50.972;7.072;2022-07-23T04:38:30;101269.97;;;18.31;98.38
8140;BME280;4111;50.972;7.072;2022-07-23T04:40:58;101276.59;;;18.24;98.69
8140;BME280;4111;50.972;7.072;2022-07-23T04:43:25;101274.69;;;18.25;98.85
8140;BME280;4111;50.972;7.072;2022-07-23T04:45:51;101281.34;;;18.53;99.55
8140;BME280;4111;50.972;7.072;2022-07-23T04:48:18;101284.56;;;19.00;98.52
8140;BME280;4111;50.972;7.072;2022-07-23T04:50:46;101286.19;;;18.67;97.20
8140;BME280;4111;50.972;7.072;2022-07-23T04:53:12;101291.47;;;18.58;97.12
8140;BME280;4111;50.972;7.072;2022-07-23T04:55:39;101290.75;;;18.47;97.75
8140;BME280;4111;50.972;7.072;2022-07-23T04:58:05;101292.19;;;18.39;98.46
8140;BME280;4111;50.972;7.072;2022-07-23T05:00:31;101296.88;;;18.34;99.10
8140;BME280;4111;50.972;7.072;2022-07-23T05:02:58;101291.84;;;18.46;99.25
8140;BME280;4111;50.972;7.072;2022-07-23T05:05:24;101302.38;;;18.73;99.55
8140;BME280;4111;50.972;7.072;2022-07-23T05:07:51;101301.03;;;18.66;98.78
8140;BME280;4111;50.972;7.072;2022-07-23T05:10:17;101310.16;;;18.61;98.67
8140;BME280;4111;50.972;7.072;2022-07-23T05:12:44;101305.31;;;18.48;98.65
8140;BME280;4111;50.972;7.072;2022-07-23T05:15:11;101310.06;;;18.37;98.95
8140;BME280;4111;50.972;7.072;2022-07-23T05:17:37;101313.38;;;18.34;99.18
8140;BME280;4111;50.972;7.072;2022-07-23T05:20:04;101316.38;;;18.37;99.02
8140;BME280;4111;50.972;7.072;2022-07-23T05:22:31;101321.16;;;18.61;99.39
8140;BME280;4111;50.972;7.072;2022-07-23T05:24:57;101322.06;;;18.91;99.13
8140;BME280;4111;50.972;7.072;2022-07-23T05:27:24;101324.00;;;18.90;98.35
8140;BME280;4111;50.972;7.072;2022-07-23T05:29:50;101314.44;;;18.77;97.68
8140;BME280;4111;50.972;7.072;2022-07-23T05:32:16;101326.34;;;18.68;98.39
8140;BME280;4111;50.972;7.072;2022-07-23T05:34:43;101318.97;;;18.63;98.40
8140;BME280;4111;50.972;7.072;2022-07-23T05:37:09;101323.66;;;18.62;99.04
8140;BME280;4111;50.972;7.072;2022-07-23T05:39:36;101324.47;;;18.63;99.82
8140;BME280;4111;50.972;7.072;2022-07-23T05:42:03;101319.59;;;18.89;99.59
8140;BME280;4111;50.972;7.072;2022-07-23T05:44:29;101322.63;;;18.88;99.07
8140;BME280;4111;50.972;7.072;2022-07-23T05:47:00;101326.50;;;18.87;98.64
8140;BME280;4111;50.972;7.072;2022-07-23T05:49:27;101324.84;;;18.86;97.95
8140;BME280;4111;50.972;7.072;2022-07-23T05:51:53;101331.19;;;18.86;98.16
8140;BME280;4111;50.972;7.072;2022-07-23T05:54:20;101329.00;;;18.83;98.17
8140;BME280;4111;50.972;7.072;2022-07-23T05:56:46;101330.88;;;18.88;98.37
8140;BME280;4111;50.972;7.072;2022-07-23T05:59:13;101335.06;;;19.14;98.45
8140;BME280;4111;50.972;7.072;2022-07-23T06:01:41;101329.81;;;19.18;97.50
8140;BME280;4111;50.972;7.072;2022-07-23T06:04:07;101335.06;;;19.14;97.04
8140;BME280;4111;50.972;7.072;2022-07-23T06:06:34;101327.34;;;19.16;97.34
8140;BME280;4111;50.972;7.072;2022-07-23T06:09:00;101328.81;;;19.03;96.55
8140;BME280;4111;50.972;7.072;2022-07-23T06:11:27;101335.09;;;19.09;96.83
8140;BME280;4111;50.972;7.072;2022-07-23T06:13:54;101331.78;;;19.12;96.25
8140;BME280;4111;50.972;7.072;2022-07-23T06:16:20;101336.63;;;18.91;95.86
8140;BME280;4111;50.972;7.072;2022-07-23T06:18:47;101337.47;;;19.21;96.03
8140;BME280;4111;50.972;7.072;2022-07-23T06:21:13;101333.72;;;19.65;95.21
8140;BME280;4111;50.972;7.072;2022-07-23T06:24:00;101344.13;;;19.92;93.38
8140;BME280;4111;50.972;7.072;2022-07-23T06:26:26;101339.88;;;19.81;92.47
8140;BME280;4111;50.972;7.072;2022-07-23T06:28:52;101341.81;;;19.80;92.47
8140;BME280;4111;50.972;7.072;2022-07-23T06:31:19;101350.97;;;19.76;92.30
8140;BME280;4111;50.972;7.072;2022-07-23T06:33:45;101345.53;;;19.66;92.54
8140;BME280;4111;50.972;7.072;2022-07-23T06:36:12;101345.53;;;19.66;93.01
8140;BME280;4111;50.972;7.072;2022-07-23T06:38:38;101341.44;;;19.63;92.10
8140;BME280;4111;50.972;7.072;2022-07-23T06:41:05;101346.72;;;19.59;92.22
8140;BME280;4111;50.972;7.072;2022-07-23T06:43:32;101352.22;;;19.59;92.03
8140;BME280;4111;50.972;7.072;2022-07-23T06:45:58;101355.56;;;19.56;91.88
8140;BME280;4111;50.972;7.072;2022-07-23T06:48:25;101347.53;;;19.60;91.96
8140;BME280;4111;50.972;7.072;2022-07-23T06:50:51;101354.59;;;19.95;92.24
8140;BME280;4111;50.972;7.072;2022-07-23T06:53:18;101347.22;;;20.48;91.06
8140;BME280;4111;50.972;7.072;2022-07-23T06:55:45;101354.63;;;20.71;89.41
8140;BME280;4111;50.972;7.072;2022-07-23T06:58:11;101354.00;;;20.60;88.82
8140;BME280;4111;50.972;7.072;2022-07-23T07:00:40;101349.88;;;20.58;88.44
8140;BME280;4111;50.972;7.072;2022-07-23T07:03:07;101358.44;;;20.56;88.68
8140;BME280;4111;50.972;7.072;2022-07-23T07:05:34;101357.97;;;20.49;89.70
8140;BME280;4111;50.972;7.072;2022-07-23T07:08:00;101357.63;;;20.56;89.47
8140;BME280;4111;50.972;7.072;2022-07-23T07:10:27;101353.72;;;20.57;88.12
8140;BME280;4111;50.972;7.072;2022-07-23T07:12:53;101354.41;;;20.49;87.62
8140;BME280;4111;50.972;7.072;2022-07-23T07:15:38;101369.91;;;20.45;87.69
8140;BME280;4111;50.972;7.072;2022-07-23T07:18:12;101369.75;;;20.55;89.26
8140;BME280;4111;50.972;7.072;2022-07-23T07:20:39;101364.97;;;20.66;88.44
8140;BME280;4111;50.972;7.072;2022-07-23T07:23:06;101360.00;;;21.14;87.19
8140;BME280;4111;50.972;7.072;2022-07-23T07:25:33;101369.63;;;21.64;84.48
8140;BME280;4111;50.972;7.072;2022-07-23T07:27:59;101369.75;;;21.58;83.59
8140;BME280;4111;50.972;7.072;2022-07-23T07:30:26;101370.03;;;21.43;82.19
8140;BME280;4111;50.972;7.072;2022-07-23T07:32:59;101372.00;;;21.24;81.83
8140;BME280;4111;50.972;7.072;2022-07-23T07:35:25;101379.34;;;21.14;82.34
8140;BME280;4111;50.972;7.072;2022-07-23T07:37:52;101385.03;;;21.04;82.62
8140;BME280;4111;50.972;7.072;2022-07-23T07:40:19;101381.53;;;20.98;82.45
8140;BME280;4111;50.972;7.072;2022-07-23T07:42:47;101388.72;;;20.99;82.77
8140;BME280;4111;50.972;7.072;2022-07-23T07:45:14;101384.13;;;21.09;82.61
8140;BME280;4111;50.972;7.072;2022-07-23T07:47:42;101385.78;;;21.10;81.81
8140;BME280;4111;50.972;7.072;2022-07-23T07:50:09;101387.94;;;21.27;81.34
8140;BME280;4111;50.972;7.072;2022-07-23T07:52:38;101391.00;;;21.44;80.18
8140;BME280;4111;50.972;7.072;2022-07-23T07:55:06;101388.88;;;21.22;79.93
8140;BME280;4111;50.972;7.072;2022-07-23T07:57:34;101388.75;;;21.13;80.23
8140;BME280;4111;50.972;7.072;2022-07-23T08:00:03;101396.34;;;21.22;80.34
8140;BME280;4111;50.972;7.072;2022-07-23T08:02:49;101393.44;;;21.13;80.44
8140;BME280;4111;50.972;7.072;2022-07-23T08:05:26;101399.75;;;20.99;79.96
8140;BME280;4111;50.972;7.072;2022-07-23T08:07:55;101397.56;;;21.15;80.59
8140;BME280;4111;50.972;7.072;2022-07-23T08:10:23;101403.88;;;21.16;80.59
8140;BME280;4111;50.972;7.072;2022-07-23T08:12:52;101413.09;;;21.11;80.34
8140;BME280;4111;50.972;7.072;2022-07-23T08:15:20;101407.09;;;21.23;79.49
8140;BME280;4111;50.972;7.072;2022-07-23T08:17:48;101407.72;;;21.34;79.32
8140;BME280;4111;50.972;7.072;2022-07-23T08:20:16;101408.44;;;21.58;79.00
8140;BME280;4111;50.972;7.072;2022-07-23T08:22:44;101402.16;;;21.53;77.75
8140;BME280;4111;50.972;7.072;2022-07-23T08:25:11;101401.47;;;21.75;77.84
8140;BME280;4111;50.972;7.072;2022-07-23T08:27:37;101414.50;;;21.74;76.94
8140;BME280;4111;50.972;7.072;2022-07-23T08:30:04;101412.13;;;21.95;77.48
8140;BME280;4111;50.972;7.072;2022-07-23T08:32:31;101417.44;;;22.06;75.98
8140;BME280;4111;50.972;7.072;2022-07-23T08:35:10;101417.56;;;22.28;75.38
8140;BME280;4111;50.972;7.072;2022-07-23T08:37:37;101417.97;;;22.22;74.02
8140;BME280;4111;50.972;7.072;2022-07-23T08:40:03;101415.72;;;22.37;73.76
8140;BME280;4111;50.972;7.072;2022-07-23T08:42:30;101421.03;;;22.20;71.75
8140;BME280;4111;50.972;7.072;2022-07-23T08:44:58;101428.63;;;22.01;71.66
8140;BME280;4111;50.972;7.072;2022-07-23T08:47:25;101419.59;;;22.36;72.13
8140;BME280;4111;50.972;7.072;2022-07-23T08:49:52;101429.19;;;22.53;71.17
8140;BME280;4111;50.972;7.072;2022-07-23T08:52:19;101425.06;;;22.64;70.63
8140;BME280;4111;50.972;7.072;2022-07-23T08:54:54;101426.28;;;22.72;70.31
8140;BME280;4111;50.972;7.072;2022-07-23T08:57:21;101427.25;;;22.90;70.16
8140;BME280;4111;50.972;7.072;2022-07-23T08:59:47;101424.16;;;23.05;70.33
8140;BME280;4111;50.972;7.072;2022-07-23T09:02:14;101429.94;;;23.17;70.20
8140;BME280;4111;50.972;7.072;2022-07-23T09:04:40;101438.25;;;23.17;69.82
8140;BME280;4111;50.972;7.072;2022-07-23T09:07:07;101427.41;;;23.07;68.45
8140;BME280;4111;50.972;7.072;2022-07-23T09:09:34;101433.75;;;23.08;69.09
8140;BME280;4111;50.972;7.072;2022-07-23T09:12:04;101435.84;;;23.25;67.80
8140;BME280;4111;50.972;7.072;2022-07-23T09:14:43;101437.97;;;23.28;66.87
8140;BME280;4111;50.972;7.072;2022-07-23T09:17:11;101427.91;;;23.32;66.99
8140;BME280;4111;50.972;7.072;2022-07-23T09:19:40;101427.78;;;23.37;66.58
8140;BME280;4111;50.972;7.072;2022-07-23T09:22:23;101426.66;;;23.38;66.65
8140;BME280;4111;50.972;7.072;2022-07-23T09:25:11;101427.38;;;23.52;66.41
8140;BME280;4111;50.972;7.072;2022-07-23T09:27:54;101434.44;;;23.67;65.89
8140;BME280;4111;50.972;7.072;2022-07-23T09:30:23;101432.66;;;23.63;64.60
8140;BME280;4111;50.972;7.072;2022-07-23T09:33:23;101438.16;;;23.54;65.03
8140;BME280;4111;50.972;7.072;2022-07-23T09:35:56;101442.84;;;23.76;64.99
8140;BME280;4111;50.972;7.072;2022-07-23T09:38:24;101443.59;;;23.68;64.18
8140;BME280;4111;50.972;7.072;2022-07-23T09:41:09;101446.03;;;23.92;64.56
8140;BME280;4111;50.972;7.072;2022-07-23T09:43:36;101442.94;;;23.93;64.05
8140;BME280;4111;50.972;7.072;2022-07-23T09:46:24;101445.25;;;24.00;64.21
8140;BME280;4111;50.972;7.072;2022-07-23T09:48:52;101442.66;;;24.12;63.83
8140;BME280;4111;50.972;7.072;2022-07-23T09:51:20;101446.00;;;24.41;64.04
8140;BME280;4111;50.972;7.072;2022-07-23T09:53:49;101444.13;;;24.59;63.32
8140;BME280;4111;50.972;7.072;2022-07-23T09:56:17;101439.81;;;24.44;61.25
8140;BME280;4111;50.972;7.072;2022-07-23T09:58:44;101436.69;;;24.37;61.60
8140;BME280;4111;50.972;7.072;2022-07-23T10:01:15;101438.19;;;24.43;61.92
8140;BME280;4111;50.972;7.072;2022-07-23T10:03:42;101435.94;;;24.53;61.69
8140;BME280;4111;50.972;7.072;2022-07-23T10:06:09;101434.13;;;24.58;61.99
8140;BME280;4111;50.972;7.072;2022-07-23T10:08:40;101446.06;;;24.76;61.37
8140;BME280;4111;50.972;7.072;2022-07-23T10:11:09;101434.81;;;24.63;60.68
8140;BME280;4111;50.972;7.072;2022-07-23T10:13:37;101429.50;;;24.44;60.60
8140;BME280;4111;50.972;7.072;2022-07-23T10:16:18;101426.44;;;24.54;60.31
8140;BME280;4111;50.972;7.072;2022-07-23T10:18:53;101425.50;;;24.77;61.91
8140;BME280;4111;50.972;7.072;2022-07-23T10:21:30;101432.03;;;24.81;60.46
8140;BME280;4111;50.972;7.072;2022-07-23T10:24:12;101418.94;;;24.90;60.65
8140;BME280;4111;50.972;7.072;2022-07-23T10:29:53;101419.25;;;25.14;59.04
8140;BME280;4111;50.972;7.072;2022-07-23T10:37:41;101413.84;;;25.44;58.52
8140;BME280;4111;50.972;7.072;2022-07-23T10:40:13;101411.84;;;25.45;58.28
8140;BME280;4111;50.972;7.072;2022-07-23T10:42:40;101416.28;;;25.37;57.95
8140;BME280;4111;50.972;7.072;2022-07-23T10:48:22;101415.84;;;25.26;56.25
8140;BME280;4111;50.972;7.072;2022-07-23T10:51:11;101411.56;;;25.29;56.32
8140;BME280;4111;50.972;7.072;2022-07-23T10:59:16;101413.34;;;25.42;56.79
8140;BME280;4111;50.972;7.072;2022-07-23T11:01:42;101409.94;;;25.37;56.34
8140;BME280;4111;50.972;7.072;2022-07-23T11:04:09;101408.31;;;25.18;56.17
8140;BME280;4111;50.972;7.072;2022-07-23T11:09:41;101400.56;;;25.41;55.39
8140;BME280;4111;50.972;7.072;2022-07-23T11:15:12;101401.38;;;25.50;55.45
8140;BME280;4111;50.972;7.072;2022-07-23T11:17:58;101398.22;;;25.61;54.82
8140;BME280;4111;50.972;7.072;2022-07-23T11:20:26;101399.34;;;26.37;53.37
8140;BME280;4111;50.972;7.072;2022-07-23T11:22:57;101394.28;;;27.72;51.71
8140;BME280;4111;50.972;7.072;2022-07-23T11:27:51;101393.41;;;29.90;43.13
8140;BME280;4111;50.972;7.072;2022-07-23T11:35:42;101387.78;;;29.26;42.90
8140;BME280;4111;50.972;7.072;2022-07-23T11:38:18;101390.50;;;29.11;43.39
8140;BME280;4111;50.972;7.072;2022-07-23T11:40:53;101391.38;;;28.99;42.96
8140;BME280;4111;50.972;7.072;2022-07-23T11:43:21;101390.53;;;28.82;42.57
8140;BME280;4111;50.972;7.072;2022-07-23T11:45:50;101393.59;;;28.77;42.78
8140;BME280;4111;50.972;7.072;2022-07-23T11:48:22;101388.81;;;28.78;42.56
8140;BME280;4111;50.972;7.072;2022-07-23T11:50:50;101390.34;;;29.03;42.28
8140;BME280;4111;50.972;7.072;2022-07-23T11:53:31;101385.53;;;29.04;42.50
8140;BME280;4111;50.972;7.072;2022-07-23T11:56:09;101384.25;;;29.14;42.11
8140;BME280;4111;50.972;7.072;2022-07-23T11:58:37;101382.53;;;28.97;41.99
8140;BME280;4111;50.972;7.072;2022-07-23T12:01:04;101386.56;;;28.43;42.66
8140;BME280;4111;50.972;7.072;2022-07-23T12:03:31;101380.13;;;28.02;43.20
8140;BME280;4111;50.972;7.072;2022-07-23T12:05:59;101376.59;;;27.80;43.93
8140;BME280;4111;50.972;7.072;2022-07-23T12:08:26;101380.78;;;27.62;44.69
8140;BME280;4111;50.972;7.072;2022-07-23T12:10:52;101387.88;;;27.14;44.47
8140;BME280;4111;50.972;7.072;2022-07-23T12:13:21;101382.69;;;26.91;45.21
8140;BME280;4111;50.972;7.072;2022-07-23T12:15:53;101381.75;;;26.87;46.36
8140;BME280;4111;50.972;7.072;2022-07-23T12:18:25;101383.13;;;26.81;46.11
8140;BME280;4111;50.972;7.072;2022-07-23T12:20:54;101379.72;;;26.75;45.68
8140;BME280;4111;50.972;7.072;2022-07-23T12:23:25;101379.03;;;26.57;45.85
8140;BME280;4111;50.972;7.072;2022-07-23T12:25:53;101369.09;;;26.47;46.53
8140;BME280;4111;50.972;7.072;2022-07-23T12:28:22;101371.84;;;26.56;46.58
8140;BME280;4111;50.972;7.072;2022-07-23T12:30:50;101376.25;;;26.57;46.67
8140;BME280;4111;50.972;7.072;2022-07-23T12:33:23;101372.97;;;26.55;46.79
8140;BME280;4111;50.972;7.072;2022-07-23T12:35:52;101375.44;;;26.57;46.79
8140;BME280;4111;50.972;7.072;2022-07-23T12:38:20;101372.94;;;26.43;45.82
8140;BME280;4111;50.972;7.072;2022-07-23T12:40:54;101374.69;;;26.26;45.49
8140;BME280;4111;50.972;7.072;2022-07-23T12:43:29;101380.53;;;26.76;46.18
8140;BME280;4111;50.972;7.072;2022-07-23T12:46:05;101388.00;;;27.75;43.89
8140;BME280;4111;50.972;7.072;2022-07-23T12:48:34;101387.47;;;28.47;43.09
8140;BME280;4111;50.972;7.072;2022-07-23T12:51:14;101380.38;;;28.90;41.58
8140;BME280;4111;50.972;7.072;2022-07-23T12:53:48;101393.03;;;29.00;40.90
8140;BME280;4111;50.972;7.072;2022-07-23T12:56:26;101391.06;;;29.29;39.53
8140;BME280;4111;50.972;7.072;2022-07-23T12:59:14;101392.66;;;29.30;38.70
8140;BME280;4111;50.972;7.072;2022-07-23T13:01:53;101394.38;;;29.34;38.77
8140;BME280;4111;50.972;7.072;2022-07-23T13:04:22;101389.78;;;29.42;39.25
8140;BME280;4111;50.972;7.072;2022-07-23T13:06:56;101393.47;;;29.62;38.96
8140;BME280;4111;50.972;7.072;2022-07-23T13:09:31;101393.03;;;29.60;38.53
8140;BME280;4111;50.972;7.072;2022-07-23T13:12:04;101393.88;;;29.60;39.03
8140;BME280;4111;50.972;7.072;2022-07-23T13:14:31;101398.03;;;29.82;38.97
8140;BME280;4111;50.972;7.072;2022-07-23T13:16:58;101393.66;;;30.01;39.07
8140;BME280;4111;50.972;7.072;2022-07-23T13:19:25;101402.59;;;30.07;37.67
8140;BME280;4111;50.972;7.072;2022-07-23T13:21:53;101403.56;;;30.14;37.54
8140;BME280;4111;50.972;7.072;2022-07-23T13:24:21;101402.50;;;30.03;37.61
8140;BME280;4111;50.972;7.072;2022-07-23T13:26:47;101397.22;;;30.17;37.93
8140;BME280;4111;50.972;7.072;2022-07-23T13:29:17;101395.84;;;30.08;37.18
8140;BME280;4111;50.972;7.072;2022-07-23T13:31:46;101395.84;;;30.08;37.17
8140;BME280;4111;50.972;7.072;2022-07-23T13:34:14;101393.88;;;29.76;37.22
8140;BME280;4111;50.972;7.072;2022-07-23T13:36:40;101390.97;;;29.89;37.92
8140;BME280;4111;50.972;7.072;2022-07-23T13:39:07;101387.72;;;29.55;37.70
8140;BME280;4111;50.972;7.072;2022-07-23T13:41:37;101385.16;;;28.90;38.38
8140;BME280;4111;50.972;7.072;2022-07-23T13:44:04;101384.50;;;28.40;40.49
8140;BME280;4111;50.972;7.072;2022-07-23T13:46:32;101388.50;;;28.14;40.38
8140;BME280;4111;50.972;7.072;2022-07-23T13:49:00;101381.50;;;27.83;41.17